Terminal Aerodrome Forecast
Issued by NWS Wilmington, OH

Current Version | Previous Version | Graphics & Text | Print | Product List | Glossary On
Versions: 1 2 3 4 5 6 7 8 9 10 11 12 13 14 15 16 17 18 19 20 21 22 23 24
000
FTUS41 KILN 191406 AAA
TAFCVG
TAF AMD
KCVG 191406Z 1914/2018 27008KT P6SM FEW025
     FM191800 27012G22KT P6SM VCSH BKN050
     FM192200 27012KT P6SM BKN050
     FM200300 25006KT P6SM FEW060=

USA.gov is the U.S. government's official web portal to all federal, state and local government web resources and services.